sensor_id;sensor_type;location;lat;lon;timestamp;pressure;altitude;pressure_sealevel;temperature;humidity
65756;BME280;52489;47.502;18.940;2023-03-04T00:00:45;98189.84;;;0.97;68.11
65756;BME280;52489;47.502;18.940;2023-03-04T00:01:49;98189.78;;;0.92;67.69
65756;BME280;52489;47.502;18.940;2023-03-04T00:02:52;98187.87;;;0.87;67.95
65756;BME280;52489;47.502;18.940;2023-03-04T00:03:55;98186.19;;;0.81;68.18
65756;BME280;52489;47.502;18.940;2023-03-04T00:04:58;98185.63;;;0.79;68.38
65756;BME280;52489;47.502;18.940;2023-03-04T00:06:01;98182.28;;;0.79;68.69
65756;BME280;52489;47.502;18.940;2023-03-04T00:07:04;98182.06;;;0.80;68.68
65756;BME280;52489;47.502;18.940;2023-03-04T00:08:07;98184.41;;;0.82;68.77
65756;BME280;52489;47.502;18.940;2023-03-04T00:09:10;98188.88;;;0.86;68.77
65756;BME280;52489;47.502;18.940;2023-03-04T00:10:14;98183.53;;;0.64;69.21
65756;BME280;52489;47.502;18.940;2023-03-04T00:11:17;98181.06;;;0.70;69.29
65756;BME280;52489;47.502;18.940;2023-03-04T00:12:20;98181.63;;;0.72;69.03
65756;BME280;52489;47.502;18.940;2023-03-04T00:13:23;98186.00;;;0.71;69.12
65756;BME280;52489;47.502;18.940;2023-03-04T00:14:26;98179.59;;;0.74;69.78
65756;BME280;52489;47.502;18.940;2023-03-04T00:15:31;98184.28;;;0.77;69.76
65756;BME280;52489;47.502;18.940;2023-03-04T00:16:34;98180.59;;;0.73;69.89
65756;BME280;52489;47.502;18.940;2023-03-04T00:17:37;98169.72;;;0.71;69.99
65756;BME280;52489;47.502;18.940;2023-03-04T00:18:40;98180.41;;;0.74;69.89
65756;BME280;52489;47.502;18.940;2023-03-04T00:19:43;98174.31;;;0.80;69.75
65756;BME280;52489;47.502;18.940;2023-03-04T00:20:46;98172.28;;;0.82;69.52
65756;BME280;52489;47.502;18.940;2023-03-04T00:21:51;98170.06;;;0.86;69.66
65756;BME280;52489;47.502;18.940;2023-03-04T00:22:54;98177.56;;;0.76;69.73
65756;BME280;52489;47.502;18.940;2023-03-04T00:23:57;98176.69;;;0.70;69.86
65756;BME280;52489;47.502;18.940;2023-03-04T00:25:00;98184.12;;;0.55;70.23
65756;BME280;52489;47.502;18.940;2023-03-04T00:26:03;98178.84;;;0.50;70.63
65756;BME280;52489;47.502;18.940;2023-03-04T00:27:06;98175.72;;;0.59;70.42
65756;BME280;52489;47.502;18.940;2023-03-04T00:28:09;98181.50;;;0.78;70.10
65756;BME280;52489;47.502;18.940;2023-03-04T00:29:12;98172.84;;;0.84;69.77
65756;BME280;52489;47.502;18.940;2023-03-04T00:30:15;98167.03;;;0.77;69.75
65756;BME280;52489;47.502;18.940;2023-03-04T00:31:19;98175.31;;;0.79;69.96
65756;BME280;52489;47.502;18.940;2023-03-04T00:32:22;98169.63;;;0.77;69.81
65756;BME280;52489;47.502;18.940;2023-03-04T00:33:25;98172.09;;;0.72;69.82
65756;BME280;52489;47.502;18.940;2023-03-04T00:34:28;98169.41;;;0.67;69.77
65756;BME280;52489;47.502;18.940;2023-03-04T00:35:34;98172.22;;;0.65;69.84
65756;BME280;52489;47.502;18.940;2023-03-04T00:36:37;98168.19;;;0.58;69.73
65756;BME280;52489;47.502;18.940;2023-03-04T00:37:40;98168.84;;;0.53;69.87
65756;BME280;52489;47.502;18.940;2023-03-04T00:38:43;98170.78;;;0.58;69.71
65756;BME280;52489;47.502;18.940;2023-03-04T00:39:46;98174.34;;;0.68;69.40
65756;BME280;52489;47.502;18.940;2023-03-04T00:40:49;98173.91;;;0.72;69.23
65756;BME280;52489;47.502;18.940;2023-03-04T00:41:52;98190.59;;;0.69;68.39
65756;BME280;52489;47.502;18.940;2023-03-04T00:42:55;98172.56;;;0.57;69.15
65756;BME280;52489;47.502;18.940;2023-03-04T00:43:57;98178.06;;;0.49;69.80
65756;BME280;52489;47.502;18.940;2023-03-04T00:45:01;98181.34;;;0.44;69.28
65756;BME280;52489;47.502;18.940;2023-03-04T00:46:04;98181.34;;;0.44;69.33
65756;BME280;52489;47.502;18.940;2023-03-04T00:47:07;98181.31;;;0.56;69.40
65756;BME280;52489;47.502;18.940;2023-03-04T00:48:11;98180.44;;;0.27;70.57
65756;BME280;52489;47.502;18.940;2023-03-04T00:49:14;98174.13;;;0.47;68.68
65756;BME280;52489;47.502;18.940;2023-03-04T00:50:17;98176.62;;;0.41;67.78
65756;BME280;52489;47.502;18.940;2023-03-04T00:51:20;98172.91;;;0.37;68.26
65756;BME280;52489;47.502;18.940;2023-03-04T00:52:23;98172.75;;;0.67;68.27
65756;BME280;52489;47.502;18.940;2023-03-04T00:53:26;98178.97;;;0.55;68.72
65756;BME280;52489;47.502;18.940;2023-03-04T00:54:29;98172.25;;;0.42;68.67
65756;BME280;52489;47.502;18.940;2023-03-04T00:55:32;98167.44;;;0.34;68.49
65756;BME280;52489;47.502;18.940;2023-03-04T00:56:35;98167.88;;;0.31;67.77
65756;BME280;52489;47.502;18.940;2023-03-04T00:57:38;98171.56;;;0.35;67.82
65756;BME280;52489;47.502;18.940;2023-03-04T00:58:41;98168.09;;;0.41;66.84
65756;BME280;52489;47.502;18.940;2023-03-04T00:59:44;98171.34;;;0.36;66.97
65756;BME280;52489;47.502;18.940;2023-03-04T01:00:47;98173.03;;;0.31;66.94
65756;BME280;52489;47.502;18.940;2023-03-04T01:01:51;98165.88;;;0.33;67.41
65756;BME280;52489;47.502;18.940;2023-03-04T01:02:54;98163.97;;;0.40;66.99
65756;BME280;52489;47.502;18.940;2023-03-04T01:03:57;98157.78;;;0.53;66.84
65756;BME280;52489;47.502;18.940;2023-03-04T01:05:03;98158.69;;;0.47;65.49
65756;BME280;52489;47.502;18.940;2023-03-04T01:06:07;98156.53;;;0.55;64.77
65756;BME280;52489;47.502;18.940;2023-03-04T01:07:10;98160.91;;;0.55;65.18
65756;BME280;52489;47.502;18.940;2023-03-04T01:08:13;98161.84;;;0.37;65.27
65756;BME280;52489;47.502;18.940;2023-03-04T01:09:16;98154.09;;;0.37;65.79
65756;BME280;52489;47.502;18.940;2023-03-04T01:10:19;98151.53;;;0.37;65.76
65756;BME280;52489;47.502;18.940;2023-03-04T01:11:22;98152.31;;;0.37;65.85
65756;BME280;52489;47.502;18.940;2023-03-04T01:12:25;98153.66;;;0.40;66.05
65756;BME280;52489;47.502;18.940;2023-03-04T01:13:28;98156.22;;;0.40;66.37
65756;BME280;52489;47.502;18.940;2023-03-04T01:14:31;98145.25;;;0.44;65.62
65756;BME280;52489;47.502;18.940;2023-03-04T01:15:34;98144.69;;;0.42;65.62
65756;BME280;52489;47.502;18.940;2023-03-04T01:16:37;98153.44;;;0.06;66.72
65756;BME280;52489;47.502;18.940;2023-03-04T01:17:40;98146.16;;;0.15;66.06
65756;BME280;52489;47.502;18.940;2023-03-04T01:18:43;98146.94;;;0.15;65.33
65756;BME280;52489;47.502;18.940;2023-03-04T01:19:48;98154.88;;;0.26;65.35
65756;BME280;52489;47.502;18.940;2023-03-04T01:20:52;98148.19;;;0.25;65.52
65756;BME280;52489;47.502;18.940;2023-03-04T01:21:55;98141.87;;;0.20;64.96
65756;BME280;52489;47.502;18.940;2023-03-04T01:22:58;98146.25;;;0.20;64.35
65756;BME280;52489;47.502;18.940;2023-03-04T01:24:00;98146.84;;;0.22;63.86
65756;BME280;52489;47.502;18.940;2023-03-04T01:25:04;98145.34;;;0.26;64.59
65756;BME280;52489;47.502;18.940;2023-03-04T01:26:07;98144.59;;;0.26;64.55
65756;BME280;52489;47.502;18.940;2023-03-04T01:27:11;98142.47;;;0.22;64.56
65756;BME280;52489;47.502;18.940;2023-03-04T01:28:14;98149.53;;;0.27;64.34
65756;BME280;52489;47.502;18.940;2023-03-04T01:29:17;98140.56;;;0.30;64.26
65756;BME280;52489;47.502;18.940;2023-03-04T01:30:20;98139.22;;;0.39;64.52
65756;BME280;52489;47.502;18.940;2023-03-04T01:31:23;98146.59;;;0.35;64.81
65756;BME280;52489;47.502;18.940;2023-03-04T01:32:26;98145.25;;;0.33;62.75
65756;BME280;52489;47.502;18.940;2023-03-04T01:33:29;98144.13;;;0.29;62.71
65756;BME280;52489;47.502;18.940;2023-03-04T01:34:32;98144.81;;;0.24;61.84
65756;BME280;52489;47.502;18.940;2023-03-04T01:35:36;98141.22;;;0.25;62.67
65756;BME280;52489;47.502;18.940;2023-03-04T01:36:39;98140.44;;;0.25;62.30
65756;BME280;52489;47.502;18.940;2023-03-04T01:37:41;98139.22;;;0.27;61.26
65756;BME280;52489;47.502;18.940;2023-03-04T01:38:44;98143.69;;;0.32;61.37
65756;BME280;52489;47.502;18.940;2023-03-04T01:39:47;98138.31;;;0.33;60.98
65756;BME280;52489;47.502;18.940;2023-03-04T01:40:50;98140.31;;;0.31;61.38
65756;BME280;52489;47.502;18.940;2023-03-04T01:41:54;98141.44;;;0.35;60.77
65756;BME280;52489;47.502;18.940;2023-03-04T01:42:58;98138.63;;;0.49;58.48
65756;BME280;52489;47.502;18.940;2023-03-04T01:44:01;98138.81;;;0.59;59.64
65756;BME280;52489;47.502;18.940;2023-03-04T01:45:04;98133.22;;;0.50;60.08
65756;BME280;52489;47.502;18.940;2023-03-04T01:46:10;98130.31;;;0.47;59.33
65756;BME280;52489;47.502;18.940;2023-03-04T01:47:17;98128.91;;;0.39;59.77
65756;BME280;52489;47.502;18.940;2023-03-04T01:48:26;98129.38;;;0.12;60.74
65756;BME280;52489;47.502;18.940;2023-03-04T01:49:29;98135.97;;;-0.04;61.08
65756;BME280;52489;47.502;18.940;2023-03-04T01:50:33;98132.16;;;0.22;59.18
65756;BME280;52489;47.502;18.940;2023-03-04T01:51:37;98133.50;;;0.13;61.05
65756;BME280;52489;47.502;18.940;2023-03-04T01:52:40;98130.94;;;0.13;60.72
65756;BME280;52489;47.502;18.940;2023-03-04T01:53:46;98133.37;;;0.08;60.85
65756;BME280;52489;47.502;18.940;2023-03-04T01:54:49;98138.09;;;0.23;61.10
65756;BME280;52489;47.502;18.940;2023-03-04T01:57:19;98125.97;;;0.23;60.10
65756;BME280;52489;47.502;18.940;2023-03-04T01:58:29;98134.28;;;0.14;60.19
65756;BME280;52489;47.502;18.940;2023-03-04T01:59:32;98130.94;;;0.02;60.19
65756;BME280;52489;47.502;18.940;2023-03-04T02:00:35;98125.13;;;0.06;60.53
65756;BME280;52489;47.502;18.940;2023-03-04T02:01:40;98121.06;;;0.34;58.98
65756;BME280;52489;47.502;18.940;2023-03-04T02:02:46;98124.09;;;0.19;59.33
65756;BME280;52489;47.502;18.940;2023-03-04T02:03:49;98127.13;;;0.04;60.37
65756;BME280;52489;47.502;18.940;2023-03-04T02:04:52;98119.41;;;0.16;59.46
65756;BME280;52489;47.502;18.940;2023-03-04T02:05:56;98125.78;;;0.13;60.48
65756;BME280;52489;47.502;18.940;2023-03-04T02:07:01;98123.00;;;0.15;59.72
65756;BME280;52489;47.502;18.940;2023-03-04T02:08:05;98119.37;;;0.28;58.43
65756;BME280;52489;47.502;18.940;2023-03-04T02:09:09;98116.69;;;0.34;56.85
65756;BME280;52489;47.502;18.940;2023-03-04T02:10:12;98119.25;;;0.34;58.06
65756;BME280;52489;47.502;18.940;2023-03-04T02:11:15;98119.94;;;0.41;57.94
65756;BME280;52489;47.502;18.940;2023-03-04T02:12:18;98118.59;;;0.39;58.37
65756;BME280;52489;47.502;18.940;2023-03-04T02:13:21;98124.88;;;0.31;58.62
65756;BME280;52489;47.502;18.940;2023-03-04T02:14:25;98122.16;;;0.26;59.63
65756;BME280;52489;47.502;18.940;2023-03-04T02:15:29;98123.19;;;0.25;59.38
65756;BME280;52489;47.502;18.940;2023-03-04T02:16:32;98118.69;;;0.32;58.78
65756;BME280;52489;47.502;18.940;2023-03-04T02:17:35;98116.69;;;0.34;57.08
65756;BME280;52489;47.502;18.940;2023-03-04T02:18:38;98115.12;;;0.33;56.65
65756;BME280;52489;47.502;18.940;2023-03-04T02:19:52;98114.88;;;0.35;56.93
65756;BME280;52489;47.502;18.940;2023-03-04T02:21:27;98115.47;;;0.25;56.86
65756;BME280;52489;47.502;18.940;2023-03-04T02:22:33;98107.72;;;0.37;56.89
65756;BME280;52489;47.502;18.940;2023-03-04T02:25:10;98102.31;;;0.38;57.58
65756;BME280;52489;47.502;18.940;2023-03-04T02:26:22;98096.88;;;0.23;58.87
65756;BME280;52489;47.502;18.940;2023-03-04T02:27:25;98104.56;;;0.35;57.79
65756;BME280;52489;47.502;18.940;2023-03-04T02:28:28;98095.63;;;0.37;57.44
65756;BME280;52489;47.502;18.940;2023-03-04T02:29:31;98091.59;;;0.41;57.91
65756;BME280;52489;47.502;18.940;2023-03-04T02:30:34;98097.09;;;0.21;59.20
65756;BME280;52489;47.502;18.940;2023-03-04T02:31:42;98089.38;;;0.10;59.67
65756;BME280;52489;47.502;18.940;2023-03-04T02:32:46;98088.59;;;0.09;60.24
65756;BME280;52489;47.502;18.940;2023-03-04T02:33:50;98089.28;;;0.05;59.16
65756;BME280;52489;47.502;18.940;2023-03-04T02:34:54;98091.97;;;0.10;60.09
65756;BME280;52489;47.502;18.940;2023-03-04T02:35:58;98090.16;;;-0.25;60.20
65756;BME280;52489;47.502;18.940;2023-03-04T02:37:02;98087.37;;;-0.12;60.38
65756;BME280;52489;47.502;18.940;2023-03-04T02:38:06;98086.81;;;-0.02;60.28
65756;BME280;52489;47.502;18.940;2023-03-04T02:39:29;98070.78;;;0.08;57.69
65756;BME280;52489;47.502;18.940;2023-03-04T02:40:34;98085.12;;;0.15;58.21
65756;BME280;52489;47.502;18.940;2023-03-04T02:41:37;98082.78;;;0.02;58.64
65756;BME280;52489;47.502;18.940;2023-03-04T02:42:43;98081.41;;;0.11;58.72
65756;BME280;52489;47.502;18.940;2023-03-04T02:43:48;98081.66;;;0.10;58.70
65756;BME280;52489;47.502;18.940;2023-03-04T02:44:58;98081.41;;;0.23;58.46
65756;BME280;52489;47.502;18.940;2023-03-04T02:46:01;98073.78;;;0.28;59.83
65756;BME280;52489;47.502;18.940;2023-03-04T02:47:07;98084.56;;;0.13;58.90
65756;BME280;52489;47.502;18.940;2023-03-04T02:48:12;98076.50;;;0.10;58.56
65756;BME280;52489;47.502;18.940;2023-03-04T02:49:16;98077.94;;;0.17;58.31
65756;BME280;52489;47.502;18.940;2023-03-04T02:50:19;98075.72;;;0.09;58.89
65756;BME280;52489;47.502;18.940;2023-03-04T02:51:23;98074.16;;;0.08;59.07
65756;BME280;52489;47.502;18.940;2023-03-04T02:52:25;98061.72;;;-0.07;58.87
65756;BME280;52489;47.502;18.940;2023-03-04T02:53:28;98074.59;;;-0.07;58.64
65756;BME280;52489;47.502;18.940;2023-03-04T02:54:31;98064.53;;;0.04;58.23
65756;BME280;52489;47.502;18.940;2023-03-04T02:55:34;98067.56;;;0.12;57.93
65756;BME280;52489;47.502;18.940;2023-03-04T02:56:37;98069.69;;;0.04;58.13
65756;BME280;52489;47.502;18.940;2023-03-04T02:57:40;98068.47;;;-0.06;59.90
65756;BME280;52489;47.502;18.940;2023-03-04T02:58:43;98065.06;;;-0.41;59.28
65756;BME280;52489;47.502;18.940;2023-03-04T02:59:46;98070.13;;;0.01;56.78
65756;BME280;52489;47.502;18.940;2023-03-04T03:00:49;98064.28;;;0.05;57.39
65756;BME280;52489;47.502;18.940;2023-03-04T03:01:52;98068.78;;;0.10;56.90
65756;BME280;52489;47.502;18.940;2023-03-04T03:02:55;98064.63;;;0.09;57.18
65756;BME280;52489;47.502;18.940;2023-03-04T03:04:01;98066.09;;;0.05;56.81
65756;BME280;52489;47.502;18.940;2023-03-04T03:05:04;98059.91;;;0.06;57.95
65756;BME280;52489;47.502;18.940;2023-03-04T03:06:07;98066.78;;;0.00;57.77
65756;BME280;52489;47.502;18.940;2023-03-04T03:07:10;98060.72;;;0.06;57.06
65756;BME280;52489;47.502;18.940;2023-03-04T03:08:13;98064.53;;;0.15;58.36
65756;BME280;52489;47.502;18.940;2023-03-04T03:09:18;98066.31;;;0.15;57.69
65756;BME280;52489;47.502;18.940;2023-03-04T03:10:21;98059.88;;;0.29;56.00
65756;BME280;52489;47.502;18.940;2023-03-04T03:11:24;98064.81;;;0.31;57.57
65756;BME280;52489;47.502;18.940;2023-03-04T03:12:28;98062.47;;;0.17;58.04
65756;BME280;52489;47.502;18.940;2023-03-04T03:13:31;98059.13;;;0.05;58.37
65756;BME280;52489;47.502;18.940;2023-03-04T03:14:33;98056.03;;;-0.09;59.15
65756;BME280;52489;47.502;18.940;2023-03-04T03:15:36;98067.19;;;0.09;58.54
65756;BME280;52489;47.502;18.940;2023-03-04T03:16:43;98063.50;;;0.16;57.44
65756;BME280;52489;47.502;18.940;2023-03-04T03:17:46;98052.44;;;0.04;58.20
65756;BME280;52489;47.502;18.940;2023-03-04T03:18:49;98053.91;;;-0.12;58.44
65756;BME280;52489;47.502;18.940;2023-03-04T03:19:52;98061.50;;;-0.05;58.26
65756;BME280;52489;47.502;18.940;2023-03-04T03:20:55;98058.37;;;-0.07;57.56
65756;BME280;52489;47.502;18.940;2023-03-04T03:21:58;98054.56;;;-0.16;58.56
65756;BME280;52489;47.502;18.940;2023-03-04T03:23:02;98047.88;;;-0.06;57.67
65756;BME280;52489;47.502;18.940;2023-03-04T03:24:05;98051.34;;;0.00;57.42
65756;BME280;52489;47.502;18.940;2023-03-04T03:25:09;98050.63;;;0.16;56.38
65756;BME280;52489;47.502;18.940;2023-03-04T03:26:12;98051.06;;;0.13;57.06
65756;BME280;52489;47.502;18.940;2023-03-04T03:27:16;98049.75;;;-0.13;58.55
65756;BME280;52489;47.502;18.940;2023-03-04T03:28:19;98046.41;;;-0.02;57.66
65756;BME280;52489;47.502;18.940;2023-03-04T03:29:22;98048.41;;;-0.04;57.84
65756;BME280;52489;47.502;18.940;2023-03-04T03:30:25;98047.63;;;-0.04;57.48
65756;BME280;52489;47.502;18.940;2023-03-04T03:31:28;98040.34;;;0.05;57.69
65756;BME280;52489;47.502;18.940;2023-03-04T03:32:31;98044.25;;;0.07;57.49
65756;BME280;52489;47.502;18.940;2023-03-04T03:33:34;98041.78;;;0.12;57.55
65756;BME280;52489;47.502;18.940;2023-03-04T03:34:37;98047.75;;;0.01;57.84
65756;BME280;52489;47.502;18.940;2023-03-04T03:35:40;98043.03;;;-0.02;57.97
65756;BME280;52489;47.502;18.940;2023-03-04T03:36:43;98042.34;;;0.03;57.96
65756;BME280;52489;47.502;18.940;2023-03-04T03:37:47;98045.28;;;-0.06;57.83
65756;BME280;52489;47.502;18.940;2023-03-04T03:38:50;98050.44;;;-0.06;58.47
65756;BME280;52489;47.502;18.940;2023-03-04T03:39:53;98040.22;;;-0.01;59.23
65756;BME280;52489;47.502;18.940;2023-03-04T03:40:56;98037.00;;;-0.08;58.84
65756;BME280;52489;47.502;18.940;2023-03-04T03:41:59;98042.94;;;-0.07;58.79
65756;BME280;52489;47.502;18.940;2023-03-04T03:43:03;98036.88;;;-0.13;59.11
65756;BME280;52489;47.502;18.940;2023-03-04T03:44:05;98039.69;;;-0.14;59.10
65756;BME280;52489;47.502;18.940;2023-03-04T03:45:09;98040.34;;;-0.07;59.61
65756;BME280;52489;47.502;18.940;2023-03-04T03:46:12;98036.22;;;-0.20;59.34
65756;BME280;52489;47.502;18.940;2023-03-04T03:47:15;98042.81;;;-0.24;59.64
65756;BME280;52489;47.502;18.940;2023-03-04T03:48:18;98039.12;;;-0.28;60.58
65756;BME280;52489;47.502;18.940;2023-03-04T03:49:21;98034.87;;;-0.22;60.38
65756;BME280;52489;47.502;18.940;2023-03-04T03:50:24;98038.69;;;-0.25;60.94
65756;BME280;52489;47.502;18.940;2023-03-04T03:51:27;98041.13;;;-0.30;60.60
65756;BME280;52489;47.502;18.940;2023-03-04T03:52:30;98038.22;;;-0.22;60.62
65756;BME280;52489;47.502;18.940;2023-03-04T03:53:33;98047.88;;;-0.06;60.58
65756;BME280;52489;47.502;18.940;2023-03-04T03:54:36;98042.72;;;-0.06;60.17
65756;BME280;52489;47.502;18.940;2023-03-04T03:55:39;98040.69;;;-0.27;60.56
65756;BME280;52489;47.502;18.940;2023-03-04T03:56:41;98041.59;;;-0.45;61.16
65756;BME280;52489;47.502;18.940;2023-03-04T03:57:44;98041.81;;;-0.47;61.75
65756;BME280;52489;47.502;18.940;2023-03-04T03:58:47;98047.38;;;-0.73;63.42
65756;BME280;52489;47.502;18.940;2023-03-04T03:59:50;98040.91;;;-0.52;62.33
65756;BME280;52489;47.502;18.940;2023-03-04T04:00:53;98041.13;;;-0.42;61.48
65756;BME280;52489;47.502;18.940;2023-03-04T04:01:59;98045.16;;;-0.46;61.58
65756;BME280;52489;47.502;18.940;2023-03-04T04:03:02;98039.91;;;-0.39;62.01
65756;BME280;52489;47.502;18.940;2023-03-04T04:04:05;98036.56;;;-0.40;61.80
65756;BME280;52489;47.502;18.940;2023-03-04T04:05:09;98038.69;;;-0.37;61.88
65756;BME280;52489;47.502;18.940;2023-03-04T04:06:12;98048.97;;;-0.37;62.18
65756;BME280;52489;47.502;18.940;2023-03-04T04:07:16;98048.88;;;-0.30;61.90
65756;BME280;52489;47.502;18.940;2023-03-04T04:08:19;98042.37;;;-0.21;61.69
65756;BME280;52489;47.502;18.940;2023-03-04T04:09:22;98042.72;;;-0.29;61.92
65756;BME280;52489;47.502;18.940;2023-03-04T04:10:25;98040.94;;;-0.29;62.54
65756;BME280;52489;47.502;18.940;2023-03-04T04:11:28;98041.03;;;-0.24;62.27
65756;BME280;52489;47.502;18.940;2023-03-04T04:12:31;98036.09;;;-0.25;62.36
65756;BME280;52489;47.502;18.940;2023-03-04T04:13:34;98047.06;;;-0.41;62.85
65756;BME280;52489;47.502;18.940;2023-03-04T04:14:40;98036.00;;;-0.42;63.12
65756;BME280;52489;47.502;18.940;2023-03-04T04:15:43;98037.56;;;-0.41;63.25
65756;BME280;52489;47.502;18.940;2023-03-04T04:16:46;98036.34;;;-0.38;63.20
65756;BME280;52489;47.502;18.940;2023-03-04T04:17:50;98035.53;;;-0.27;63.11
65756;BME280;52489;47.502;18.940;2023-03-04T04:18:53;98041.03;;;-0.24;62.86
65756;BME280;52489;47.502;18.940;2023-03-04T04:19:56;98042.59;;;-0.46;63.54
65756;BME280;52489;47.502;18.940;2023-03-04T04:20:59;98028.50;;;-0.43;64.04
65756;BME280;52489;47.502;18.940;2023-03-04T04:22:02;98040.34;;;-0.42;64.00
65756;BME280;52489;47.502;18.940;2023-03-04T04:23:05;98030.62;;;-0.52;64.20
65756;BME280;52489;47.502;18.940;2023-03-04T04:24:08;98036.56;;;-0.52;64.43
65756;BME280;52489;47.502;18.940;2023-03-04T04:25:11;98037.75;;;-0.78;65.06
65756;BME280;52489;47.502;18.940;2023-03-04T04:26:14;98040.22;;;-0.59;64.77
65756;BME280;52489;47.502;18.940;2023-03-04T04:27:17;98036.78;;;-0.65;64.67
65756;BME280;52489;47.502;18.940;2023-03-04T04:28:20;98032.19;;;-0.63;64.80
65756;BME280;52489;47.502;18.940;2023-03-04T04:29:29;98044.38;;;-0.58;64.55
65756;BME280;52489;47.502;18.940;2023-03-04T04:30:32;98026.50;;;-0.53;64.55
65756;BME280;52489;47.502;18.940;2023-03-04T04:31:35;98039.56;;;-0.66;64.93
65756;BME280;52489;47.502;18.940;2023-03-04T04:32:38;98038.44;;;-0.71;66.06
65756;BME280;52489;47.502;18.940;2023-03-04T04:33:41;98034.63;;;-0.56;65.63
65756;BME280;52489;47.502;18.940;2023-03-04T04:34:44;98039.56;;;-0.55;65.40
65756;BME280;52489;47.502;18.940;2023-03-04T04:35:47;98034.44;;;-0.31;64.76
65756;BME280;52489;47.502;18.940;2023-03-04T04:36:51;98027.81;;;-0.51;65.24
65756;BME280;52489;47.502;18.940;2023-03-04T04:37:53;98027.03;;;-0.51;65.48
65756;BME280;52489;47.502;18.940;2023-03-04T04:38:57;98039.12;;;-0.52;65.58
65756;BME280;52489;47.502;18.940;2023-03-04T04:40:00;98029.84;;;-0.64;66.45
65756;BME280;52489;47.502;18.940;2023-03-04T04:41:03;98035.91;;;-1.01;67.72
65756;BME280;52489;47.502;18.940;2023-03-04T04:42:09;98030.81;;;-0.77;66.91
65756;BME280;52489;47.502;18.940;2023-03-04T04:43:12;98031.84;;;-0.66;66.53
65756;BME280;52489;47.502;18.940;2023-03-04T04:44:15;98019.66;;;-0.48;65.65
65756;BME280;52489;47.502;18.940;2023-03-04T04:45:18;98030.62;;;-0.52;65.61
65756;BME280;52489;47.502;18.940;2023-03-04T04:46:22;98028.19;;;-0.47;65.63
65756;BME280;52489;47.502;18.940;2023-03-04T04:47:25;98023.34;;;-0.55;65.69
65756;BME280;52489;47.502;18.940;2023-03-04T04:48:28;98018.22;;;-0.55;65.93
65756;BME280;52489;47.502;18.940;2023-03-04T04:49:31;98027.72;;;-0.56;66.28
65756;BME280;52489;47.502;18.940;2023-03-04T04:50:35;98015.62;;;-0.79;67.25
65756;BME280;52489;47.502;18.940;2023-03-04T04:51:38;98017.41;;;-0.79;67.35
65756;BME280;52489;47.502;18.940;2023-03-04T04:52:41;98017.41;;;-0.79;67.64
65756;BME280;52489;47.502;18.940;2023-03-04T04:53:44;98015.94;;;-0.75;67.55
65756;BME280;52489;47.502;18.940;2023-03-04T04:54:46;98018.41;;;-0.69;67.16
65756;BME280;52489;47.502;18.940;2023-03-04T04:55:49;98024.91;;;-0.66;67.39
65756;BME280;52489;47.502;18.940;2023-03-04T04:56:52;98018.19;;;-0.67;67.23
65756;BME280;52489;47.502;18.940;2023-03-04T04:57:55;98021.66;;;-0.73;68.03
65756;BME280;52489;47.502;18.940;2023-03-04T04:59:01;98022.19;;;-0.71;68.26
65756;BME280;52489;47.502;18.940;2023-03-04T05:00:05;98022.34;;;-0.54;67.24
65756;BME280;52489;47.502;18.940;2023-03-04T05:01:09;98010.38;;;-0.49;67.11
65756;BME280;52489;47.502;18.940;2023-03-04T05:02:12;98018.78;;;-0.53;67.11
65756;BME280;52489;47.502;18.940;2023-03-04T05:03:15;98016.84;;;-0.70;67.82
65756;BME280;52489;47.502;18.940;2023-03-04T05:04:20;98014.50;;;-0.59;67.57
65756;BME280;52489;47.502;18.940;2023-03-04T05:05:23;98024.78;;;-0.59;67.63
65756;BME280;52489;47.502;18.940;2023-03-04T05:06:26;98019.56;;;-0.53;67.11
65756;BME280;52489;47.502;18.940;2023-03-04T05:07:29;98017.88;;;-0.59;67.32
65756;BME280;52489;47.502;18.940;2023-03-04T05:08:32;98014.16;;;-0.63;67.69
65756;BME280;52489;47.502;18.940;2023-03-04T05:09:35;98016.75;;;-0.51;67.53
65756;BME280;52489;47.502;18.940;2023-03-04T05:10:38;98020.34;;;-0.52;67.83
65756;BME280;52489;47.502;18.940;2023-03-04T05:11:41;98018.22;;;-0.55;68.01
65756;BME280;52489;47.502;18.940;2023-03-04T05:12:44;98018.22;;;-0.55;68.58
65756;BME280;52489;47.502;18.940;2023-03-04T05:13:47;98012.72;;;-0.59;68.68
65756;BME280;52489;47.502;18.940;2023-03-04T05:14:50;98020.47;;;-0.47;68.57
65756;BME280;52489;47.502;18.940;2023-03-04T05:15:54;98017.19;;;-0.54;68.86
65756;BME280;52489;47.502;18.940;2023-03-04T05:16:58;98018.66;;;-0.58;68.87
65756;BME280;52489;47.502;18.940;2023-03-04T05:18:01;98019.19;;;-0.56;68.70
65756;BME280;52489;47.502;18.940;2023-03-04T05:19:03;98020.78;;;-0.55;68.84
65756;BME280;52489;47.502;18.940;2023-03-04T05:20:07;98015.97;;;-0.52;68.85
65756;BME280;52489;47.502;18.940;2023-03-04T05:21:11;98015.84;;;-0.45;68.65
65756;BME280;52489;47.502;18.940;2023-03-04T05:22:14;98016.09;;;-0.58;69.42
65756;BME280;52489;47.502;18.940;2023-03-04T05:23:16;98015.19;;;-0.64;69.94
65756;BME280;52489;47.502;18.940;2023-03-04T05:24:19;98016.66;;;-0.68;69.85
65756;BME280;52489;47.502;18.940;2023-03-04T05:25:22;98024.00;;;-0.60;69.85
65756;BME280;52489;47.502;18.940;2023-03-04T05:26:26;98024.78;;;-0.59;69.50
65756;BME280;52489;47.502;18.940;2023-03-04T05:27:29;98018.34;;;-0.50;68.90
65756;BME280;52489;47.502;18.940;2023-03-04T05:28:32;98021.91;;;-0.51;68.82
65756;BME280;52489;47.502;18.940;2023-03-04T05:29:36;98020.47;;;-0.47;68.75
65756;BME280;52489;47.502;18.940;2023-03-04T05:30:39;98020.34;;;-0.40;68.63
65756;BME280;52489;47.502;18.940;2023-03-04T05:31:43;98021.22;;;-0.23;68.15
65756;BME280;52489;47.502;18.940;2023-03-04T05:32:46;98023.03;;;-0.24;68.15
65756;BME280;52489;47.502;18.940;2023-03-04T05:33:48;98018.41;;;-0.21;67.86
65756;BME280;52489;47.502;18.940;2023-03-04T05:34:51;98022.22;;;-0.12;67.55
65756;BME280;52489;47.502;18.940;2023-03-04T05:35:54;98021.09;;;-0.05;67.79
65756;BME280;52489;47.502;18.940;2023-03-04T05:36:57;98024.78;;;-0.12;67.62
65756;BME280;52489;47.502;18.940;2023-03-04T05:38:01;98023.25;;;-0.25;68.17